Time;durP1;ratioP1;P1;durP2;ratioP2;P2;SDS_P1;SDS_P2;PMS_P1;PMS_P2;Temp;Humidity;BMP_temperature;BMP_pressure;BME280_temperature;BME280_humidity;BME280_pressure;Samples;Min_cycle;Max_cycle;Signal;HPM_P1;HPM_P2
2021/09/28 00:00:43;;;;;;;6.25;3.40;;;;;;;11.37;66.16;101313.58;1704526;82;21279;-60
2021/09/28 00:03:10;;;;;;;6.20;2.70;;;;;;;11.40;66.58;101317.30;1710584;82;21074;-59
2021/09/28 00:05:36;;;;;;;7.45;3.45;;;;;;;11.48;66.70;101314.98;1695414;84;21126;-59
2021/09/28 00:08:05;;;;;;;8.08;3.52;;;;;;;11.55;66.76;101318.90;1678204;84;21579;-60
2021/09/28 00:10:33;;;;;;;7.90;3.22;;;;;;;11.56;66.59;101317.93;1696173;84;21133;-61
2021/09/28 00:12:59;;;;;;;7.80;3.55;;;;;;;11.51;66.87;101318.73;1701863;82;21855;-60
2021/09/28 00:15:26;;;;;;;8.28;3.35;;;;;;;11.43;66.67;101321.04;1684719;82;21097;-60
2021/09/28 00:17:54;;;;;;;7.92;3.20;;;;;;;11.39;67.11;101316.95;1705873;82;21086;-60
2021/09/28 00:20:23;;;;;;;9.80;4.20;;;;;;;11.33;67.49;101319.05;1665367;83;21109;-60
2021/09/28 00:22:53;;;;;;;8.15;3.08;;;;;;;11.33;67.69;101310.28;1674655;84;21037;-60
2021/09/28 00:25:17;;;;;;;6.20;2.83;;;;;;;11.37;67.63;101317.05;1709742;82;21782;-60
2021/09/28 00:27:44;;;;;;;6.30;3.05;;;;;;;11.38;67.78;101315.24;1664916;83;21174;-60
2021/09/28 00:30:11;;;;;;;7.12;3.58;;;;;;;11.41;67.83;101316.36;1714497;82;21062;-60
2021/09/28 00:32:40;;;;;;;10.00;3.52;;;;;;;11.40;67.90;101321.25;1701061;82;21041;-60
2021/09/28 00:35:07;;;;;;;7.72;3.52;;;;;;;11.33;68.10;101320.38;1707443;82;21034;-61
2021/09/28 00:37:35;;;;;;;11.93;3.33;;;;;;;11.32;68.23;101323.11;1647974;83;22087;-60
2021/09/28 00:40:02;;;;;;;8.70;3.72;;;;;;;11.27;68.33;101318.14;1698274;83;21039;-61
2021/09/28 00:42:29;;;;;;;11.20;3.67;;;;;;;11.25;68.46;101323.16;1694848;84;21108;-60
2021/09/28 00:44:56;;;;;;;7.28;3.62;;;;;;;11.27;68.52;101320.78;1687063;83;21042;-60
2021/09/28 00:47:22;;;;;;;8.25;3.42;;;;;;;11.30;68.50;101320.57;1691415;83;21109;-60
2021/09/28 00:49:49;;;;;;;8.10;3.40;;;;;;;11.32;68.51;101316.03;1706181;81;21118;-60
2021/09/28 00:52:19;;;;;;;7.08;3.45;;;;;;;11.30;68.48;101313.98;1704258;82;21156;-60
2021/09/28 00:54:46;;;;;;;7.12;3.70;;;;;;;11.27;68.38;101312.88;1687269;82;21099;-60
2021/09/28 00:57:12;;;;;;;7.80;4.30;;;;;;;11.25;68.31;101313.94;1664188;84;21077;-60
2021/09/28 00:59:39;;;;;;;10.35;4.30;;;;;;;11.23;68.53;101315.36;1673120;84;21085;-60
2021/09/28 01:02:10;;;;;;;7.42;4.33;;;;;;;11.22;68.64;101311.02;1663270;84;22299;-60
2021/09/28 01:04:37;;;;;;;8.60;4.70;;;;;;;11.25;68.55;101309.50;1687570;84;21024;-60
2021/09/28 01:07:05;;;;;;;9.73;5.92;;;;;;;11.30;68.44;101313.16;1687295;84;21990;-59
2021/09/28 01:09:33;;;;;;;9.58;5.83;;;;;;;11.30;68.44;101310.52;1681269;84;21059;-60
2021/09/28 01:12:00;;;;;;;9.65;5.90;;;;;;;11.24;68.40;101314.87;1689137;84;21121;-60
2021/09/28 01:14:27;;;;;;;8.83;5.47;;;;;;;11.16;68.50;101314.06;1684773;83;21179;-60
2021/09/28 01:16:54;;;;;;;8.73;5.47;;;;;;;11.08;68.65;101322.50;1646371;85;21058;-60
2021/09/28 01:19:22;;;;;;;9.35;4.95;;;;;;;11.02;68.70;101319.44;1643714;85;21568;-59
2021/09/28 01:21:50;;;;;;;8.05;4.50;;;;;;;10.99;68.72;101323.59;1671526;84;21169;-60
2021/09/28 01:24:18;;;;;;;10.08;5.40;;;;;;;11.01;68.63;101317.73;1648312;85;21082;-60
2021/09/28 01:26:44;;;;;;;9.38;5.95;;;;;;;11.01;68.72;101322.55;1650816;85;21122;-59
2021/09/28 01:29:11;;;;;;;9.03;5.60;;;;;;;10.99;68.84;101318.32;1624160;85;21087;-60
2021/09/28 01:31:39;;;;;;;11.03;6.30;;;;;;;10.93;69.23;101328.32;1647284;85;21086;-60
2021/09/28 01:34:07;;;;;;;10.63;5.72;;;;;;;10.88;69.25;101322.52;1699339;84;21040;-60
2021/09/28 01:36:36;;;;;;;9.43;5.70;;;;;;;10.85;69.36;101324.03;1639524;85;21538;-60
2021/09/28 01:39:03;;;;;;;11.53;4.95;;;;;;;10.78;69.57;101325.39;1696884;84;21232;-60
2021/09/28 01:41:30;;;;;;;8.33;4.12;;;;;;;10.75;69.66;101322.47;1690279;82;21066;-60
2021/09/28 01:44:12;;;;;;;11.08;5.42;;;;;;;10.75;69.64;101320.32;1692407;84;21039;-60
2021/09/28 01:46:41;;;;;;;11.15;5.33;;;;;;;10.80;69.67;101326.13;1637863;85;21113;-60
2021/09/28 01:49:09;;;;;;;9.00;4.25;;;;;;;10.79;69.74;101323.11;1695558;82;21576;-61
2021/09/28 01:51:36;;;;;;;7.87;4.12;;;;;;;10.75;69.72;101327.73;1695127;84;22225;-61
2021/09/28 01:54:03;;;;;;;8.33;4.65;;;;;;;10.71;69.85;101321.48;1687355;84;21035;-61
2021/09/28 01:56:30;;;;;;;8.30;5.00;;;;;;;10.67;69.93;101330.50;1683699;83;21114;-61
2021/09/28 01:58:57;;;;;;;11.53;4.97;;;;;;;10.62;69.93;101329.48;1680190;84;22788;-61
2021/09/28 02:01:25;;;;;;;9.65;4.80;;;;;;;10.56;70.03;101329.91;1681832;84;21130;-61
2021/09/28 02:03:52;;;;;;;10.48;5.35;;;;;;;10.55;70.01;101329.03;1671061;85;23288;-61
2021/09/28 02:06:21;;;;;;;9.53;4.83;;;;;;;10.52;70.04;101325.77;1621053;85;22307;-61
2021/09/28 02:08:49;;;;;;;10.10;4.45;;;;;;;10.46;70.22;101325.70;1678833;84;21482;-61
2021/09/28 02:11:15;;;;;;;6.58;3.72;;;;;;;10.38;70.33;101326.18;1675048;84;21490;-61
2021/09/28 02:13:41;;;;;;;8.55;4.45;;;;;;;10.32;70.39;101330.54;1672941;83;21015;-60
2021/09/28 02:16:09;;;;;;;7.15;3.95;;;;;;;10.27;70.55;101329.09;1673976;85;21110;-61
2021/09/28 02:18:36;;;;;;;8.58;4.10;;;;;;;10.22;70.62;101328.06;1667904;85;21544;-60
2021/09/28 02:21:03;;;;;;;7.25;4.20;;;;;;;10.19;70.64;101322.54;1669233;85;22292;-60
2021/09/28 02:23:30;;;;;;;7.65;3.45;;;;;;;10.25;70.69;101325.72;1674252;83;21124;-60
2021/09/28 02:25:56;;;;;;;8.23;4.00;;;;;;;10.27;70.62;101326.02;1643096;85;21070;-60
2021/09/28 02:28:23;;;;;;;6.53;3.58;;;;;;;10.32;70.72;101327.05;1677644;85;22102;-60
2021/09/28 02:30:52;;;;;;;6.25;3.75;;;;;;;10.33;70.70;101327.43;1676295;85;21022;-61
2021/09/28 02:33:19;;;;;;;7.95;4.53;;;;;;;10.28;70.63;101332.11;1648409;85;21098;-61
2021/09/28 02:35:45;;;;;;;8.43;4.45;;;;;;;10.16;70.62;101330.62;1679162;84;21007;-61
2021/09/28 02:38:12;;;;;;;9.25;4.17;;;;;;;10.05;70.91;101330.44;1679599;83;21154;-61
2021/09/28 02:40:39;;;;;;;8.58;4.33;;;;;;;10.01;71.18;101332.91;1652323;85;22060;-61
2021/09/28 02:43:07;;;;;;;7.10;3.60;;;;;;;10.04;71.26;101338.81;1676266;84;21007;-61
2021/09/28 02:45:33;;;;;;;7.17;4.10;;;;;;;10.07;71.29;101339.11;1678818;85;21512;-60
2021/09/28 02:47:59;;;;;;;7.60;4.45;;;;;;;10.07;71.20;101342.18;1675605;83;21082;-61
2021/09/28 02:50:25;;;;;;;8.15;4.83;;;;;;;10.04;71.30;101349.81;1665954;83;21600;-61
2021/09/28 02:52:52;;;;;;;10.15;4.60;;;;;;;10.02;71.17;101348.59;1678076;85;21138;-62
2021/09/28 02:55:19;;;;;;;6.97;3.40;;;;;;;9.99;71.00;101344.00;1646676;85;21082;-61
2021/09/28 02:57:45;;;;;;;6.50;3.47;;;;;;;9.99;70.83;101342.68;1652971;85;21058;-61
2021/09/28 03:00:14;;;;;;;7.90;4.08;;;;;;;10.04;70.64;101347.18;1658599;84;21099;-61
2021/09/28 03:02:40;;;;;;;7.37;3.85;;;;;;;10.06;70.44;101354.50;1645787;85;21084;-61
2021/09/28 03:05:09;;;;;;;10.55;4.30;;;;;;;10.00;70.41;101350.47;1676034;83;21851;-61
2021/09/28 03:07:36;;;;;;;8.78;4.12;;;;;;;9.94;70.50;101359.21;1667668;84;21066;-61
2021/09/28 03:10:04;;;;;;;7.53;3.95;;;;;;;9.81;70.59;101352.06;1642502;85;21098;-61
2021/09/28 03:12:30;;;;;;;7.37;4.03;;;;;;;9.74;70.82;101350.75;1667613;84;21071;-61
2021/09/28 03:14:59;;;;;;;7.92;4.28;;;;;;;9.71;70.83;101356.67;1660915;84;21046;-61
2021/09/28 03:17:25;;;;;;;12.13;4.12;;;;;;;9.73;70.87;101361.36;1662392;85;21646;-61
2021/09/28 03:19:52;;;;;;;7.17;4.47;;;;;;;9.74;70.85;101358.64;1663831;84;21142;-62
2021/09/28 03:22:20;;;;;;;8.00;5.10;;;;;;;9.74;70.94;101356.01;1662376;84;21058;-60
2021/09/28 03:24:47;;;;;;;9.73;4.80;;;;;;;9.69;71.10;101361.18;1662497;84;21019;-61
2021/09/28 03:27:13;;;;;;;7.80;4.75;;;;;;;9.69;71.12;101365.13;1665919;85;21071;-61
2021/09/28 03:29:40;;;;;;;7.30;3.90;;;;;;;9.67;71.17;101364.73;1666747;84;21532;-61
2021/09/28 03:32:07;;;;;;;11.57;4.12;;;;;;;9.67;71.03;101366.53;1663405;84;21054;-62
2021/09/28 03:34:34;;;;;;;7.28;3.98;;;;;;;9.71;70.96;101368.02;1663492;84;21043;-61
2021/09/28 03:37:00;;;;;;;12.95;3.92;;;;;;;9.75;70.98;101375.24;1662100;84;21070;-61
2021/09/28 03:39:28;;;;;;;6.97;4.15;;;;;;;9.72;71.13;101378.92;1664767;84;21084;-62
2021/09/28 03:41:56;;;;;;;10.35;4.47;;;;;;;9.68;71.32;101380.02;1667761;85;21050;-61
2021/09/28 03:44:23;;;;;;;8.90;4.90;;;;;;;9.66;71.29;101380.59;1663563;84;21038;-61
2021/09/28 03:46:49;;;;;;;7.17;4.00;;;;;;;9.60;71.35;101384.45;1634864;85;21081;-60
2021/09/28 03:49:16;;;;;;;7.97;3.77;;;;;;;9.59;71.33;101384.53;1662225;84;21583;-60
2021/09/28 03:51:42;;;;;;;8.80;4.42;;;;;;;9.58;71.30;101388.09;1667464;84;21110;-61
2021/09/28 03:54:09;;;;;;;9.38;3.92;;;;;;;9.58;71.31;101387.64;1665023;84;21904;-61
2021/09/28 03:56:36;;;;;;;7.55;4.37;;;;;;;9.56;71.48;101390.80;1687236;83;21058;-61
2021/09/28 03:59:02;;;;;;;8.23;4.60;;;;;;;9.54;71.55;101386.59;1682902;83;21129;-61
2021/09/28 04:01:29;;;;;;;7.20;4.65;;;;;;;9.48;71.60;101388.66;1664551;84;21113;-61
2021/09/28 04:03:56;;;;;;;7.30;3.98;;;;;;;9.44;71.72;101388.44;1666653;82;21023;-61
2021/09/28 04:06:22;;;;;;;7.75;4.15;;;;;;;9.47;71.72;101393.52;1672333;82;21198;-64
2021/09/28 04:08:48;;;;;;;7.45;3.85;;;;;;;9.53;71.48;101389.70;1689123;82;21111;-61
2021/09/28 04:11:17;;;;;;;6.85;4.05;;;;;;;9.58;71.50;101390.72;1660717;85;21085;-61
2021/09/28 04:13:47;;;;;;;8.58;4.65;;;;;;;9.64;71.49;101387.25;1687011;83;21563;-61
2021/09/28 04:16:15;;;;;;;7.95;4.33;;;;;;;9.65;71.44;101385.49;1686573;83;21067;-61
2021/09/28 04:18:42;;;;;;;8.25;4.30;;;;;;;9.66;71.38;101388.00;1683839;83;21080;-61
2021/09/28 04:21:09;;;;;;;8.20;3.95;;;;;;;9.67;71.34;101389.70;1688325;83;21087;-60
2021/09/28 04:23:36;;;;;;;9.35;4.80;;;;;;;9.73;71.17;101388.47;1689490;83;21030;-60
2021/09/28 04:26:02;;;;;;;9.03;4.25;;;;;;;9.81;70.84;101383.60;1662475;84;21137;-61
2021/09/28 04:28:30;;;;;;;8.08;4.85;;;;;;;9.89;70.74;101388.89;1670021;85;21121;-61
2021/09/28 04:30:56;;;;;;;11.95;5.97;;;;;;;9.92;70.54;101392.17;1669014;83;22297;-61
2021/09/28 04:33:23;;;;;;;9.40;4.50;;;;;;;9.90;70.48;101391.87;1669704;84;21051;-62
2021/09/28 04:35:49;;;;;;;9.75;5.05;;;;;;;9.85;70.47;101398.27;1644229;85;21058;-62
2021/09/28 04:38:15;;;;;;;8.90;4.65;;;;;;;9.80;70.53;101391.58;1644052;85;21117;-62
2021/09/28 04:40:42;;;;;;;10.25;4.28;;;;;;;9.78;70.73;101388.20;1695006;83;21036;-61
2021/09/28 04:43:08;;;;;;;10.60;4.78;;;;;;;9.79;70.59;101399.95;1673044;82;21599;-61
2021/09/28 04:45:35;;;;;;;9.90;4.30;;;;;;;9.85;70.47;101391.70;1690252;83;21011;-62
2021/09/28 04:48:01;;;;;;;8.00;4.30;;;;;;;9.94;70.50;101399.97;1700508;82;21052;-62
2021/09/28 04:50:27;;;;;;;8.13;4.70;;;;;;;10.02;70.56;101395.92;1696546;82;22061;-62
2021/09/28 04:52:54;;;;;;;8.68;4.50;;;;;;;10.12;70.53;101400.59;1644477;85;21082;-62
2021/09/28 04:55:21;;;;;;;8.13;4.72;;;;;;;10.21;70.48;101400.04;1646388;85;22051;-62
2021/09/28 04:57:47;;;;;;;8.50;4.67;;;;;;;10.25;70.07;101404.63;1652085;84;21094;-62
2021/09/28 05:00:14;;;;;;;9.00;4.33;;;;;;;10.25;70.00;101400.20;1676661;83;21608;-61
2021/09/28 05:02:41;;;;;;;8.33;4.17;;;;;;;10.27;69.54;101404.92;1680230;84;21059;-62
2021/09/28 05:05:08;;;;;;;8.10;4.20;;;;;;;10.26;69.45;101410.28;1679269;84;21123;-61
2021/09/28 05:07:35;;;;;;;7.60;4.03;;;;;;;10.30;69.27;101411.77;1655836;84;21205;-61
2021/09/28 05:10:02;;;;;;;8.30;4.30;;;;;;;10.32;68.78;101410.78;1679597;84;20987;-61
2021/09/28 05:12:29;;;;;;;8.55;4.95;;;;;;;10.30;68.74;101415.71;1690495;83;21789;-62
2021/09/28 05:14:57;;;;;;;7.17;3.80;;;;;;;10.27;68.78;101418.53;1701986;83;21104;-61
2021/09/28 05:17:25;;;;;;;8.33;4.58;;;;;;;10.19;68.72;101419.02;1689330;83;21162;-61
2021/09/28 05:19:51;;;;;;;9.83;4.20;;;;;;;10.04;68.83;101417.70;1678914;84;21854;-61
2021/09/28 05:22:18;;;;;;;10.18;4.60;;;;;;;9.89;68.90;101427.84;1668204;83;21197;-61
2021/09/28 05:24:44;;;;;;;7.20;3.85;;;;;;;9.78;69.34;101432.89;1673551;84;21070;-61
2021/09/28 05:27:10;;;;;;;6.92;3.95;;;;;;;9.75;69.37;101431.30;1677223;83;20983;-61
2021/09/28 05:29:37;;;;;;;6.45;3.45;;;;;;;9.75;69.47;101429.99;1673504;84;21093;-61
2021/09/28 05:32:05;;;;;;;7.33;4.25;;;;;;;9.83;69.72;101429.52;1676792;84;21528;-62
2021/09/28 05:34:33;;;;;;;7.20;3.92;;;;;;;9.93;69.60;101427.18;1668658;84;21195;-61
2021/09/28 05:37:00;;;;;;;8.30;4.03;;;;;;;9.97;69.70;101432.62;1677330;84;21090;-61
2021/09/28 05:39:26;;;;;;;10.13;5.37;;;;;;;10.05;69.52;101433.00;1676997;84;21575;-61
2021/09/28 05:41:54;;;;;;;6.95;4.05;;;;;;;10.10;69.11;101434.88;1671314;84;21078;-61
2021/09/28 05:44:21;;;;;;;7.42;3.85;;;;;;;10.11;68.94;101435.73;1669278;84;21939;-60
2021/09/28 05:46:47;;;;;;;7.83;3.98;;;;;;;10.13;68.71;101441.75;1674821;84;21113;-60
2021/09/28 05:49:14;;;;;;;9.18;4.65;;;;;;;10.12;68.58;101441.36;1673995;83;21254;-61
2021/09/28 05:51:48;;;;;;;8.30;4.40;;;;;;;10.14;68.62;101442.97;1654902;85;21071;-60
2021/09/28 05:54:18;;;;;;;7.40;4.10;;;;;;;10.19;68.88;101444.84;1673904;84;21196;-62
2021/09/28 05:56:43;;;;;;;8.63;4.20;;;;;;;10.30;69.03;101449.43;1654750;84;21224;-61
2021/09/28 05:59:10;;;;;;;10.00;5.05;;;;;;;10.34;68.68;101454.06;1676487;83;21118;-61
2021/09/28 06:01:37;;;;;;;10.95;5.05;;;;;;;10.30;68.46;101454.69;1650358;84;21094;-61
2021/09/28 06:04:04;;;;;;;8.15;4.33;;;;;;;10.23;68.40;101459.97;1672275;83;21083;-59
2021/09/28 06:06:31;;;;;;;9.28;5.00;;;;;;;10.14;68.65;101456.12;1678757;83;21065;-61
2021/09/28 06:08:57;;;;;;;8.40;4.60;;;;;;;10.10;68.87;101459.02;1681993;84;21156;-62
2021/09/28 06:11:24;;;;;;;11.78;8.10;;;;;;;10.16;68.83;101456.86;1681228;84;20965;-63
2021/09/28 06:13:51;;;;;;;11.18;5.85;;;;;;;10.23;68.82;101454.22;1679279;84;21066;-62
2021/09/28 06:16:18;;;;;;;7.72;4.30;;;;;;;10.29;68.64;101454.34;1651715;84;21082;-63
2021/09/28 06:18:45;;;;;;;9.40;4.97;;;;;;;10.25;68.73;101455.45;1679693;83;21153;-62
2021/09/28 06:21:12;;;;;;;8.30;4.20;;;;;;;10.23;68.93;101453.39;1677115;84;22028;-62
2021/09/28 06:23:39;;;;;;;8.75;4.85;;;;;;;10.31;69.11;101454.25;1688367;83;21050;-62
2021/09/28 06:26:05;;;;;;;7.97;4.97;;;;;;;10.42;68.75;101459.70;1679203;83;21110;-63
2021/09/28 06:28:35;;;;;;;8.68;4.50;;;;;;;10.49;68.58;101458.84;1654897;84;21069;-65
2021/09/28 06:31:02;;;;;;;6.92;4.00;;;;;;;10.57;68.18;101465.34;1672968;84;21161;-65
2021/09/28 06:33:29;;;;;;;11.03;5.80;;;;;;;10.68;67.91;101459.87;1650222;84;21238;-65
2021/09/28 06:35:55;;;;;;;7.60;4.45;;;;;;;10.78;67.60;101459.66;1682041;83;21532;-65
2021/09/28 06:38:21;;;;;;;11.25;5.67;;;;;;;10.82;67.48;101466.88;1678441;83;21158;-65
2021/09/28 06:40:48;;;;;;;10.35;6.47;;;;;;;10.74;67.47;101462.95;1674624;83;21604;-64
2021/09/28 06:43:15;;;;;;;8.10;5.08;;;;;;;10.71;67.72;101460.52;1674632;83;21063;-64
2021/09/28 06:45:42;;;;;;;10.03;6.25;;;;;;;10.72;67.57;101464.82;1672136;84;21163;-64
2021/09/28 06:48:09;;;;;;;8.25;4.95;;;;;;;10.68;67.52;101465.97;1678034;83;21042;-61
2021/09/28 06:50:35;;;;;;;9.45;4.28;;;;;;;10.67;67.73;101468.22;1677332;83;21095;-59
2021/09/28 06:53:01;;;;;;;8.33;4.37;;;;;;;10.68;67.87;101467.77;1697554;83;21050;-62
2021/09/28 06:55:28;;;;;;;9.50;5.20;;;;;;;10.75;68.10;101465.95;1694688;82;21132;-61
2021/09/28 06:57:55;;;;;;;10.23;4.85;;;;;;;10.83;68.05;101477.31;1668800;83;21867;-60
2021/09/28 07:00:21;;;;;;;8.90;5.25;;;;;;;10.79;67.98;101474.49;1693630;82;21080;-63
2021/09/28 07:02:48;;;;;;;8.70;4.78;;;;;;;10.79;68.05;101471.86;1694298;82;21109;-61
2021/09/28 07:05:15;;;;;;;9.33;5.92;;;;;;;10.76;68.08;101478.18;1698976;82;21017;-58
2021/09/28 07:07:43;;;;;;;9.90;5.87;;;;;;;10.76;68.10;101486.08;1702229;82;21539;-61
2021/09/28 07:10:10;;;;;;;8.65;4.58;;;;;;;10.81;68.21;101488.42;1699628;82;21218;-59
2021/09/28 07:12:38;;;;;;;9.33;5.37;;;;;;;10.88;68.02;101492.83;1695225;82;21069;-60
2021/09/28 07:15:05;;;;;;;10.23;5.53;;;;;;;10.91;67.82;101489.53;1637048;84;21066;-60
2021/09/28 07:17:32;;;;;;;9.60;5.90;;;;;;;10.93;68.26;101493.38;1675135;83;21075;-61
2021/09/28 07:20:02;;;;;;;11.12;7.12;;;;;;;11.00;68.45;101492.52;1697902;82;21508;-61
2021/09/28 07:22:28;;;;;;;14.10;6.30;;;;;;;11.05;68.22;101501.80;1693074;82;21838;-62
2021/09/28 07:24:56;;;;;;;9.60;6.40;;;;;;;11.10;68.20;101496.25;1681969;83;21110;-61
2021/09/28 07:27:22;;;;;;;12.33;7.30;;;;;;;11.11;67.93;101500.10;1685538;83;21034;-61
2021/09/28 07:29:49;;;;;;;12.10;7.12;;;;;;;11.10;67.81;101501.03;1687022;83;21160;-60
2021/09/28 07:32:16;;;;;;;10.93;6.37;;;;;;;11.19;67.87;101498.27;1678428;83;21150;-60
2021/09/28 07:34:42;;;;;;;9.95;6.45;;;;;;;11.22;67.66;101505.98;1683162;83;21134;-61
2021/09/28 07:37:09;;;;;;;10.10;6.72;;;;;;;11.24;67.74;101511.98;1659981;83;21552;-60
2021/09/28 07:39:35;;;;;;;13.98;7.62;;;;;;;11.22;67.99;101512.56;1660406;84;21116;-60
2021/09/28 07:42:04;;;;;;;10.30;6.53;;;;;;;11.22;68.17;101508.62;1687574;83;20995;-61
2021/09/28 07:44:31;;;;;;;9.63;5.90;;;;;;;11.23;68.07;101509.45;1682884;83;21470;-62
2021/09/28 07:47:01;;;;;;;10.85;6.58;;;;;;;11.21;68.19;101513.98;1681069;83;21125;-60
2021/09/28 07:49:27;;;;;;;10.58;5.80;;;;;;;11.27;68.21;101519.70;1687106;83;21107;-61
2021/09/28 07:51:53;;;;;;;10.32;6.00;;;;;;;11.32;67.89;101518.92;1686968;83;21568;-60
2021/09/28 07:54:19;;;;;;;10.05;6.05;;;;;;;11.37;67.73;101519.12;1685907;83;21085;-60
2021/09/28 07:56:46;;;;;;;13.05;6.62;;;;;;;11.45;67.71;101518.98;1641798;85;22318;-62
2021/09/28 07:59:12;;;;;;;11.25;6.47;;;;;;;11.57;67.75;101521.77;1662606;84;21143;-62
2021/09/28 08:01:39;;;;;;;11.18;7.03;;;;;;;11.62;67.62;101527.09;1644575;84;21159;-61
2021/09/28 08:04:07;;;;;;;12.35;6.47;;;;;;;11.64;67.39;101523.04;1678084;83;21531;-61
2021/09/28 08:06:33;;;;;;;9.05;5.92;;;;;;;11.59;67.35;101524.66;1668030;84;21115;-61
2021/09/28 08:09:00;;;;;;;10.88;6.58;;;;;;;11.62;67.62;101523.62;1646148;85;21148;-60
2021/09/28 08:11:28;;;;;;;9.98;5.55;;;;;;;11.71;67.55;101516.41;1648480;85;21042;-60
2021/09/28 08:13:54;;;;;;;11.50;5.72;;;;;;;11.88;67.40;101526.69;1673379;84;21070;-59
2021/09/28 08:16:21;;;;;;;8.95;5.28;;;;;;;12.00;66.96;101521.08;1659808;84;21093;-60
2021/09/28 08:18:49;;;;;;;9.43;6.75;;;;;;;12.15;67.03;101520.97;1675718;84;21133;-62
2021/09/28 08:21:15;;;;;;;9.45;6.00;;;;;;;12.26;66.89;101521.92;1674185;84;21006;-62
2021/09/28 08:23:42;;;;;;;9.68;6.15;;;;;;;12.37;66.63;101525.16;1675041;84;21174;-63
2021/09/28 08:29:09;;;;;;;10.95;6.70;;;;;;;12.59;66.06;101517.02;1647087;84;21032;-62
2021/09/28 08:31:42;;;;;;;12.60;6.12;;;;;;;12.69;65.75;101518.06;1671670;84;21070;-61
2021/09/28 08:34:09;;;;;;;9.15;5.40;;;;;;;12.77;65.72;101517.04;1673457;84;21097;-62
2021/09/28 08:36:35;;;;;;;10.03;5.28;;;;;;;12.86;64.97;101513.38;1673154;84;22239;-60
2021/09/28 08:39:04;;;;;;;12.30;5.97;;;;;;;13.00;64.25;101512.75;1677069;84;21066;-61
2021/09/28 08:41:30;;;;;;;8.93;5.60;;;;;;;13.17;64.25;101512.84;1673473;84;21219;-61
2021/09/28 08:43:57;;;;;;;10.68;6.62;;;;;;;13.32;64.17;101519.33;1645480;84;21065;-61
2021/09/28 08:46:25;;;;;;;9.90;5.40;;;;;;;13.40;63.78;101515.65;1674754;84;21077;-60
2021/09/28 08:48:52;;;;;;;10.10;5.37;;;;;;;13.49;63.38;101516.77;1650698;84;21073;-61
2021/09/28 08:51:18;;;;;;;11.20;5.60;;;;;;;13.56;63.21;101519.30;1671332;84;22366;-60
2021/09/28 08:53:50;;;;;;;9.18;5.58;;;;;;;13.61;62.51;101513.67;1671418;84;21401;-61
2021/09/28 08:56:17;;;;;;;10.63;5.40;;;;;;;13.61;62.43;101513.67;1647227;85;21161;-60
2021/09/28 08:58:55;;;;;;;10.15;5.70;;;;;;;13.62;62.37;101513.56;1669962;85;21126;-60
2021/09/28 09:01:21;;;;;;;8.28;4.22;;;;;;;13.69;62.54;101516.11;1649481;84;22431;-60
2021/09/28 09:03:49;;;;;;;7.33;4.03;;;;;;;13.77;60.93;101518.64;1676095;83;21086;-60
2021/09/28 09:06:17;;;;;;;7.90;3.98;;;;;;;13.75;60.30;101513.47;1653396;84;21038;-60
2021/09/28 09:08:48;;;;;;;7.85;4.35;;;;;;;13.79;60.63;101516.75;1679825;84;21091;-60
2021/09/28 09:11:13;;;;;;;9.75;4.75;;;;;;;13.83;60.65;101516.38;1674009;83;21870;-60
2021/09/28 09:13:49;;;;;;;7.90;4.10;;;;;;;13.85;60.49;101518.45;1646819;84;20984;-61
2021/09/28 09:16:15;;;;;;;9.20;4.10;;;;;;;13.89;60.16;101515.09;1653976;85;28494;-60
2021/09/28 09:18:46;;;;;;;11.35;4.17;;;;;;;13.88;59.79;101513.39;1652875;84;21377;-60
2021/09/28 09:21:14;;;;;;;9.40;4.08;;;;;;;13.87;59.57;101522.28;1655074;84;21077;-61
2021/09/28 09:23:45;;;;;;;10.45;4.28;;;;;;;13.85;59.92;101520.23;1683695;84;21123;-61
2021/09/28 09:26:19;;;;;;;11.38;4.20;;;;;;;13.90;59.54;101516.30;1674126;84;22433;-61
2021/09/28 09:28:51;;;;;;;8.38;4.05;;;;;;;14.00;59.87;101520.38;1676929;83;21070;-61
2021/09/28 09:31:30;;;;;;;7.25;4.03;;;;;;;14.13;59.39;101521.62;1673284;83;21122;-59
2021/09/28 09:34:10;;;;;;;12.40;4.62;;;;;;;14.23;59.28;101520.44;1675680;83;21057;-59
2021/09/28 09:36:37;;;;;;;13.65;4.47;;;;;;;14.34;59.39;101528.85;1673772;84;21016;-60
2021/09/28 09:39:09;;;;;;;12.15;3.83;;;;;;;14.43;58.81;101525.50;1659095;85;21795;-60
2021/09/28 09:41:34;;;;;;;8.30;3.80;;;;;;;14.55;58.63;101525.02;1673554;83;21109;-60
2021/09/28 09:44:11;;;;;;;10.00;3.42;;;;;;;14.59;58.19;101531.78;1677614;84;21103;-60
2021/09/28 09:46:47;;;;;;;9.18;4.30;;;;;;;14.58;58.07;101520.81;1675519;84;21062;-59
2021/09/28 09:49:16;;;;;;;14.47;5.20;;;;;;;14.61;57.98;101518.80;1671182;84;21043;-59
2021/09/28 09:51:52;;;;;;;9.93;4.10;;;;;;;14.68;57.53;101519.98;1675301;83;21687;-59
2021/09/28 09:54:33;;;;;;;;;;;;;;;14.74;57.41;101518.64;1663677;84;21067;-60
2021/09/28 09:57:04;;;;;;;11.85;3.92;;;;;;;14.80;57.72;101518.66;1689519;83;20149;-60
2021/09/28 09:59:31;;;;;;;15.40;4.25;;;;;;;14.85;57.21;101513.34;1671550;84;21042;-60
2021/09/28 10:01:57;;;;;;;7.92;3.10;;;;;;;14.93;55.69;101506.11;1700811;82;20995;-60
2021/09/28 10:04:24;;;;;;;9.58;3.42;;;;;;;14.92;55.02;101512.36;1665480;84;21107;-60
2021/09/28 10:06:54;;;;;;;8.88;4.12;;;;;;;14.89;55.16;101511.27;1649629;85;21090;-60
2021/09/28 10:09:25;;;;;;;9.20;3.92;;;;;;;14.91;55.43;101511.16;1673903;85;21563;-60
2021/09/28 10:12:00;;;;;;;10.30;3.52;;;;;;;14.95;55.22;101521.39;1670824;83;21055;-59
2021/09/28 10:14:40;;;;;;;13.72;3.55;;;;;;;14.97;55.44;101518.63;1674850;83;21024;-61
2021/09/28 10:17:39;;;;;;;10.43;2.80;;;;;;;14.98;55.41;101524.30;1671641;84;21105;-60
2021/09/28 10:20:06;;;;;;;12.18;3.77;;;;;;;14.97;55.43;101520.78;1665781;84;21119;-60
2021/09/28 10:22:48;;;;;;;8.28;3.15;;;;;;;14.93;55.55;101520.68;1675543;83;21102;-60
2021/09/28 10:25:35;;;;;;;10.72;3.02;;;;;;;14.88;55.36;101525.97;1676004;82;21665;-60
2021/09/28 10:28:08;;;;;;;11.90;3.15;;;;;;;14.78;55.65;101524.07;1693096;82;21156;-60
2021/09/28 10:30:45;;;;;;;13.00;3.42;;;;;;;14.72;56.61;101525.05;1682530;83;21569;-60
2021/09/28 10:33:23;;;;;;;8.23;3.10;;;;;;;14.67;56.40;101522.75;1643286;85;21120;-60
2021/09/28 10:36:05;;;;;;;9.88;3.00;;;;;;;14.59;56.26;101523.83;1687641;83;21105;-62
2021/09/28 10:38:47;;;;;;;7.85;2.72;;;;;;;14.54;56.58;101526.84;1695432;83;21121;-60
2021/09/28 10:41:42;;;;;;;12.37;2.85;;;;;;;14.49;56.75;101531.63;1664214;84;21424;-59
2021/09/28 10:44:41;;;;;;;12.07;2.80;;;;;;;14.44;56.56;101533.79;1695767;83;21180;-60
2021/09/28 10:47:27;;;;;;;17.25;3.30;;;;;;;14.38;56.27;101528.99;1685749;84;21143;-61
2021/09/28 10:50:20;;;;;;;12.93;4.35;;;;;;;14.33;56.60;101528.02;1689306;83;21078;-61
2021/09/28 10:52:46;;;;;;;14.53;3.50;;;;;;;14.27;56.01;101532.00;1662225;85;21532;-62
2021/09/28 10:55:20;;;;;;;13.85;3.42;;;;;;;14.29;56.40;101527.42;1667569;84;21074;-62
2021/09/28 10:58:01;;;;;;;12.90;3.52;;;;;;;14.34;56.57;101528.39;1677126;83;21895;-62
2021/09/28 11:02:06;;;;;;;11.60;3.40;;;;;;;14.48;56.54;101525.98;1795380;78;22665;-60
2021/09/28 11:04:33;;;;;;;10.10;3.55;;;;;;;14.47;56.62;101524.29;1773031;79;21496;-61
2021/09/28 11:07:08;;;;;;;11.25;3.30;;;;;;;14.44;56.24;101525.84;1770083;80;21479;-61
2021/09/28 11:09:47;;;;;;;11.12;3.42;;;;;;;14.41;56.67;101527.44;1768117;79;21043;-59
2021/09/28 11:12:13;;;;;;;11.18;3.15;;;;;;;14.37;56.23;101533.42;1741090;80;21074;-60
2021/09/28 11:14:41;;;;;;;17.23;3.47;;;;;;;14.33;55.95;101533.80;1769871;79;21623;-58
2021/09/28 11:17:15;;;;;;;13.18;3.58;;;;;;;14.30;56.02;101535.70;1744376;80;21066;-57
2021/09/28 11:19:41;;;;;;;9.43;2.90;;;;;;;14.30;56.01;101533.05;1742895;80;21158;-59
2021/09/28 11:22:11;;;;;;;13.62;4.12;;;;;;;14.30;56.64;101533.05;1768683;79;21567;-59
2021/09/28 11:24:38;;;;;;;12.03;2.98;;;;;;;14.36;56.52;101536.22;1765758;78;21533;-61
2021/09/28 11:27:11;;;;;;;10.75;3.22;;;;;;;14.41;56.45;101528.27;1772144;80;21129;-60
2021/09/28 11:29:39;;;;;;;6.75;2.83;;;;;;;14.49;55.99;101528.97;1770223;80;21034;-61
2021/09/28 11:32:07;;;;;;;18.95;3.05;;;;;;;14.48;55.88;101531.28;1770653;80;21214;-61
2021/09/28 11:34:37;;;;;;;7.78;2.75;;;;;;;14.44;55.55;101535.11;1766154;80;21606;-61